LGSO Airport Information

Runway Information
Runway 18 Length 3542 ft width 98 ft
Elevation 225 ft Threshold 0 ft Heading 181
Runway 36 Length 3542 ft Width 98 ft
Elevation 236 ft Threshold 0 ft Heading 1
Airport Frequencies
Type A/G Name RDO Frequency 563.7 MHZ
Type AFIS Name AFIS Frequency 118.85 MHZ
Airport Navaids
Type NDB Name Syros Frequency 417 KHZ
Airport Weather Information & NOTAM

Deprecated: The each() function is deprecated. This message will be suppressed on further calls in /home/customer/www/peakairlines.org/public_html/lib/functions.php on line 141
ADDS - METARS form results

(0857 UTC 23 September 2020)
Data provider http://aviationweather.gov/metar/data/
 
METAR text: LGSO 230850Z 01007KT CAVOK 26/14 Q1017
Conditions at: LGSO (SYROS , GR) observed 0850 UTC 23 September 2020
Temperature: 26.0°C (79°F)
Dewpoint: 14.0°C (57°F) [RH = 48%]
Pressure (altimeter): 30.03 inches Hg (1017.0 mb)
Winds: from the N (10 degrees) at 8 MPH (7 knots; 3.6 m/s)
Visibility: 6 or more miles (10+ km)
Ceiling: ceiling and visibility are OK
Clouds: unknown
Weather: no significant weather observed at this time